<?xml version="1.0" encoding="UTF-8" standalone="no" ?>
<gpx xmlns="http://www.topografix.com/GPX/1/1" xmlns:xsi="http://www.w3.org/2001/XMLSchema-instance" xsi:schemaLocation="http://www.topografix.com/GPX/1/1 http://www.topografix.com/GPX/1/1/gpx.xsd" version="1.1" creator="VisuGPX - https://www.visugpx.com">
  <metadata>
    <name>ARQUES LA SEYNE SUR MER 1497 KM</name>
    <desc><![CDATA[Rando de Arques dans le Pas de Calais jusque La Seyne sur Mer dans le Var, 1497 km]]></desc>
  </metadata>
  <trk>
    <name><![CDATA[30 - ORCHES ALUZE 25.8 KM]]></name>
    <extensions>
      <line xmlns="http://www.topografix.com/GPX/gpx_style/0/2">
        <color>FFFF00</color>
        <width>4</width>
      </line>
    </extensions>
    <trkseg>
      <trkpt lat="46.99306" lon="4.69243">
        <ele>531</ele>
        <time>2021-11-15T11:43:39+01:00</time>
      </trkpt>
      <trkpt lat="46.99223" lon="4.69373">
        <ele>521</ele>
        <time>2021-11-15T11:43:44+01:00</time>
      </trkpt>
      <trkpt lat="46.99212" lon="4.693">
        <ele>529</ele>
        <time>2021-11-15T11:43:49+01:00</time>
      </trkpt>
      <trkpt lat="46.9911" lon="4.69223">
        <ele>526</ele>
        <time>2021-11-15T11:43:54+01:00</time>
      </trkpt>
      <trkpt lat="46.99049" lon="4.69049">
        <ele>524</ele>
        <time>2021-11-15T11:43:59+01:00</time>
      </trkpt>
      <trkpt lat="46.98961" lon="4.68757">
        <ele>518</ele>
        <time>2021-11-15T11:44:04+01:00</time>
      </trkpt>
      <trkpt lat="46.989" lon="4.68599">
        <ele>513</ele>
        <time>2021-11-15T11:44:09+01:00</time>
      </trkpt>
      <trkpt lat="46.98936" lon="4.68436">
        <ele>518</ele>
        <time>2021-11-15T11:44:14+01:00</time>
      </trkpt>
      <trkpt lat="46.99002" lon="4.68278">
        <ele>531</ele>
        <time>2021-11-15T11:44:19+01:00</time>
      </trkpt>
      <trkpt lat="46.98961" lon="4.68108">
        <ele>545</ele>
        <time>2021-11-15T11:44:24+01:00</time>
      </trkpt>
      <trkpt lat="46.98886" lon="4.68209">
        <ele>536</ele>
        <time>2021-11-15T11:44:29+01:00</time>
      </trkpt>
      <trkpt lat="46.98822" lon="4.6838">
        <ele>520</ele>
        <time>2021-11-15T11:44:34+01:00</time>
      </trkpt>
      <trkpt lat="46.988" lon="4.68424">
        <ele>515</ele>
        <time>2021-11-15T11:44:39+01:00</time>
      </trkpt>
      <trkpt lat="46.98681" lon="4.68538">
        <ele>515</ele>
        <time>2021-11-15T11:44:44+01:00</time>
      </trkpt>
      <trkpt lat="46.98538" lon="4.68611">
        <ele>528</ele>
        <time>2021-11-15T11:44:49+01:00</time>
      </trkpt>
      <trkpt lat="46.98421" lon="4.68712">
        <ele>530</ele>
        <time>2021-11-15T11:44:54+01:00</time>
      </trkpt>
      <trkpt lat="46.98325" lon="4.68724">
        <ele>534</ele>
        <time>2021-11-15T11:44:59+01:00</time>
      </trkpt>
      <trkpt lat="46.98247" lon="4.68676">
        <ele>537</ele>
        <time>2021-11-15T11:45:04+01:00</time>
      </trkpt>
      <trkpt lat="46.98192" lon="4.68603">
        <ele>534</ele>
        <time>2021-11-15T11:45:09+01:00</time>
      </trkpt>
      <trkpt lat="46.98344" lon="4.68246">
        <ele>562</ele>
        <time>2021-11-15T11:45:14+01:00</time>
      </trkpt>
      <trkpt lat="46.97896" lon="4.67476">
        <ele>553</ele>
        <time>2021-11-15T11:45:19+01:00</time>
      </trkpt>
      <trkpt lat="46.97921" lon="4.67419">
        <ele>555</ele>
        <time>2021-11-15T11:45:24+01:00</time>
      </trkpt>
      <trkpt lat="46.97888" lon="4.67281">
        <ele>556</ele>
        <time>2021-11-15T11:45:29+01:00</time>
      </trkpt>
      <trkpt lat="46.97777" lon="4.67293">
        <ele>554</ele>
        <time>2021-11-15T11:45:34+01:00</time>
      </trkpt>
      <trkpt lat="46.97758" lon="4.672">
        <ele>554</ele>
        <time>2021-11-15T11:45:39+01:00</time>
      </trkpt>
      <trkpt lat="46.97713" lon="4.67123">
        <ele>551</ele>
        <time>2021-11-15T11:45:44+01:00</time>
      </trkpt>
      <trkpt lat="46.97708" lon="4.66928">
        <ele>548</ele>
        <time>2021-11-15T11:45:49+01:00</time>
      </trkpt>
      <trkpt lat="46.97522" lon="4.67042">
        <ele>538</ele>
        <time>2021-11-15T11:45:54+01:00</time>
      </trkpt>
      <trkpt lat="46.97434" lon="4.67176">
        <ele>538</ele>
        <time>2021-11-15T11:45:59+01:00</time>
      </trkpt>
      <trkpt lat="46.97298" lon="4.6733">
        <ele>540</ele>
        <time>2021-11-15T11:46:04+01:00</time>
      </trkpt>
      <trkpt lat="46.97257" lon="4.67297">
        <ele>541</ele>
        <time>2021-11-15T11:46:09+01:00</time>
      </trkpt>
      <trkpt lat="46.97196" lon="4.6737">
        <ele>540</ele>
        <time>2021-11-15T11:46:14+01:00</time>
      </trkpt>
      <trkpt lat="46.97022" lon="4.67305">
        <ele>540</ele>
        <time>2021-11-15T11:46:19+01:00</time>
      </trkpt>
      <trkpt lat="46.96964" lon="4.67208">
        <ele>546</ele>
        <time>2021-11-15T11:46:24+01:00</time>
      </trkpt>
      <trkpt lat="46.9716" lon="4.66624">
        <ele>534</ele>
        <time>2021-11-15T11:46:29+01:00</time>
      </trkpt>
      <trkpt lat="46.96903" lon="4.66604">
        <ele>541</ele>
        <time>2021-11-15T11:46:34+01:00</time>
      </trkpt>
      <trkpt lat="46.96717" lon="4.66543">
        <ele>543</ele>
        <time>2021-11-15T11:46:39+01:00</time>
      </trkpt>
      <trkpt lat="46.96789" lon="4.66458">
        <ele>545</ele>
        <time>2021-11-15T11:46:44+01:00</time>
      </trkpt>
      <trkpt lat="46.97011" lon="4.65538">
        <ele>510</ele>
        <time>2021-11-15T11:46:49+01:00</time>
      </trkpt>
      <trkpt lat="46.969" lon="4.65538">
        <ele>509</ele>
        <time>2021-11-15T11:46:54+01:00</time>
      </trkpt>
      <trkpt lat="46.96939" lon="4.65461">
        <ele>492</ele>
        <time>2021-11-15T11:46:59+01:00</time>
      </trkpt>
      <trkpt lat="46.96917" lon="4.65379">
        <ele>475</ele>
        <time>2021-11-15T11:47:04+01:00</time>
      </trkpt>
      <trkpt lat="46.96582" lon="4.65327">
        <ele>502</ele>
        <time>2021-11-15T11:47:09+01:00</time>
      </trkpt>
      <trkpt lat="46.96493" lon="4.65148">
        <ele>463</ele>
        <time>2021-11-15T11:47:14+01:00</time>
      </trkpt>
      <trkpt lat="46.96388" lon="4.64755">
        <ele>397</ele>
        <time>2021-11-15T11:47:19+01:00</time>
      </trkpt>
      <trkpt lat="46.96319" lon="4.64674">
        <ele>386</ele>
        <time>2021-11-15T11:47:24+01:00</time>
      </trkpt>
      <trkpt lat="46.963" lon="4.64561">
        <ele>372</ele>
        <time>2021-11-15T11:47:29+01:00</time>
      </trkpt>
      <trkpt lat="46.9625" lon="4.64467">
        <ele>360</ele>
        <time>2021-11-15T11:47:34+01:00</time>
      </trkpt>
      <trkpt lat="46.96211" lon="4.64245">
        <ele>346</ele>
        <time>2021-11-15T11:47:39+01:00</time>
      </trkpt>
      <trkpt lat="46.96156" lon="4.6427">
        <ele>344</ele>
        <time>2021-11-15T11:47:44+01:00</time>
      </trkpt>
      <trkpt lat="46.96015" lon="4.64213">
        <ele>342</ele>
        <time>2021-11-15T11:47:49+01:00</time>
      </trkpt>
      <trkpt lat="46.95984" lon="4.64274">
        <ele>344</ele>
        <time>2021-11-15T11:47:54+01:00</time>
      </trkpt>
      <trkpt lat="46.95852" lon="4.64201">
        <ele>340</ele>
        <time>2021-11-15T11:47:59+01:00</time>
      </trkpt>
      <trkpt lat="46.95724" lon="4.64039">
        <ele>339</ele>
        <time>2021-11-15T11:48:04+01:00</time>
      </trkpt>
      <trkpt lat="46.95489" lon="4.63848">
        <ele>330</ele>
        <time>2021-11-15T11:48:09+01:00</time>
      </trkpt>
      <trkpt lat="46.95478" lon="4.63812">
        <ele>330</ele>
        <time>2021-11-15T11:48:14+01:00</time>
      </trkpt>
      <trkpt lat="46.95384" lon="4.63735">
        <ele>329</ele>
        <time>2021-11-15T11:48:19+01:00</time>
      </trkpt>
      <trkpt lat="46.95334" lon="4.63641">
        <ele>330</ele>
        <time>2021-11-15T11:48:24+01:00</time>
      </trkpt>
      <trkpt lat="46.95351" lon="4.63572">
        <ele>330</ele>
        <time>2021-11-15T11:48:29+01:00</time>
      </trkpt>
      <trkpt lat="46.9524" lon="4.63431">
        <ele>329</ele>
        <time>2021-11-15T11:48:34+01:00</time>
      </trkpt>
      <trkpt lat="46.95176" lon="4.63451">
        <ele>328</ele>
        <time>2021-11-15T11:48:39+01:00</time>
      </trkpt>
      <trkpt lat="46.94645" lon="4.64416">
        <ele>365</ele>
        <time>2021-11-15T11:48:44+01:00</time>
      </trkpt>
      <trkpt lat="46.94291" lon="4.64817">
        <ele>374</ele>
        <time>2021-11-15T11:48:49+01:00</time>
      </trkpt>
      <trkpt lat="46.94186" lon="4.64878">
        <ele>368</ele>
        <time>2021-11-15T11:48:54+01:00</time>
      </trkpt>
      <trkpt lat="46.94105" lon="4.65012">
        <ele>367</ele>
        <time>2021-11-15T11:48:59+01:00</time>
      </trkpt>
      <trkpt lat="46.93945" lon="4.65178">
        <ele>375</ele>
        <time>2021-11-15T11:49:04+01:00</time>
      </trkpt>
      <trkpt lat="46.9387" lon="4.65239">
        <ele>376</ele>
        <time>2021-11-15T11:49:09+01:00</time>
      </trkpt>
      <trkpt lat="46.93676" lon="4.65693">
        <ele>398</ele>
        <time>2021-11-15T11:49:14+01:00</time>
      </trkpt>
      <trkpt lat="46.93444" lon="4.66009">
        <ele>433</ele>
        <time>2021-11-15T11:49:19+01:00</time>
      </trkpt>
      <trkpt lat="46.93291" lon="4.66098">
        <ele>449</ele>
        <time>2021-11-15T11:49:24+01:00</time>
      </trkpt>
      <trkpt lat="46.93211" lon="4.66196">
        <ele>457</ele>
        <time>2021-11-15T11:49:29+01:00</time>
      </trkpt>
      <trkpt lat="46.93051" lon="4.66402">
        <ele>452</ele>
        <time>2021-11-15T11:49:34+01:00</time>
      </trkpt>
      <trkpt lat="46.9297" lon="4.66447">
        <ele>453</ele>
        <time>2021-11-15T11:49:39+01:00</time>
      </trkpt>
      <trkpt lat="46.92931" lon="4.66532">
        <ele>453</ele>
        <time>2021-11-15T11:49:44+01:00</time>
      </trkpt>
      <trkpt lat="46.92751" lon="4.66621">
        <ele>450</ele>
        <time>2021-11-15T11:49:49+01:00</time>
      </trkpt>
      <trkpt lat="46.9256" lon="4.66508">
        <ele>443</ele>
        <time>2021-11-15T11:49:54+01:00</time>
      </trkpt>
      <trkpt lat="46.92494" lon="4.66504">
        <ele>445</ele>
        <time>2021-11-15T11:49:59+01:00</time>
      </trkpt>
      <trkpt lat="46.92433" lon="4.66715">
        <ele>460</ele>
        <time>2021-11-15T11:50:04+01:00</time>
      </trkpt>
      <trkpt lat="46.92444" lon="4.66885">
        <ele>463</ele>
        <time>2021-11-15T11:50:09+01:00</time>
      </trkpt>
      <trkpt lat="46.92505" lon="4.6712">
        <ele>457</ele>
        <time>2021-11-15T11:50:14+01:00</time>
      </trkpt>
      <trkpt lat="46.92475" lon="4.6729">
        <ele>456</ele>
        <time>2021-11-15T11:50:19+01:00</time>
      </trkpt>
      <trkpt lat="46.92397" lon="4.67375">
        <ele>458</ele>
        <time>2021-11-15T11:50:24+01:00</time>
      </trkpt>
      <trkpt lat="46.92386" lon="4.67448">
        <ele>459</ele>
        <time>2021-11-15T11:50:29+01:00</time>
      </trkpt>
      <trkpt lat="46.92328" lon="4.67554">
        <ele>459</ele>
        <time>2021-11-15T11:50:34+01:00</time>
      </trkpt>
      <trkpt lat="46.9227" lon="4.67688">
        <ele>435</ele>
        <time>2021-11-15T11:50:39+01:00</time>
      </trkpt>
      <trkpt lat="46.92267" lon="4.67927">
        <ele>432</ele>
        <time>2021-11-15T11:50:44+01:00</time>
      </trkpt>
      <trkpt lat="46.92148" lon="4.68">
        <ele>399</ele>
        <time>2021-11-15T11:50:49+01:00</time>
      </trkpt>
      <trkpt lat="46.92048" lon="4.68109">
        <ele>381</ele>
        <time>2021-11-15T11:50:54+01:00</time>
      </trkpt>
      <trkpt lat="46.91907" lon="4.68215">
        <ele>359</ele>
        <time>2021-11-15T11:50:59+01:00</time>
      </trkpt>
      <trkpt lat="46.91774" lon="4.68438">
        <ele>339</ele>
        <time>2021-11-15T11:51:04+01:00</time>
      </trkpt>
      <trkpt lat="46.91719" lon="4.68454">
        <ele>327</ele>
        <time>2021-11-15T11:51:09+01:00</time>
      </trkpt>
      <trkpt lat="46.91688" lon="4.68409">
        <ele>319</ele>
        <time>2021-11-15T11:51:14+01:00</time>
      </trkpt>
      <trkpt lat="46.91666" lon="4.68462">
        <ele>316</ele>
        <time>2021-11-15T11:51:19+01:00</time>
      </trkpt>
      <trkpt lat="46.91638" lon="4.68389">
        <ele>308</ele>
        <time>2021-11-15T11:51:24+01:00</time>
      </trkpt>
      <trkpt lat="46.91594" lon="4.68417">
        <ele>301</ele>
        <time>2021-11-15T11:51:29+01:00</time>
      </trkpt>
      <trkpt lat="46.91475" lon="4.68356">
        <ele>281</ele>
        <time>2021-11-15T11:51:34+01:00</time>
      </trkpt>
      <trkpt lat="46.91428" lon="4.68328">
        <ele>275</ele>
        <time>2021-11-15T11:51:39+01:00</time>
      </trkpt>
      <trkpt lat="46.91245" lon="4.68434">
        <ele>262</ele>
        <time>2021-11-15T11:51:44+01:00</time>
      </trkpt>
      <trkpt lat="46.91035" lon="4.68628">
        <ele>245</ele>
        <time>2021-11-15T11:51:49+01:00</time>
      </trkpt>
      <trkpt lat="46.90893" lon="4.68847">
        <ele>231</ele>
        <time>2021-11-15T11:51:54+01:00</time>
      </trkpt>
      <trkpt lat="46.90766" lon="4.68993">
        <ele>226</ele>
        <time>2021-11-15T11:51:59+01:00</time>
      </trkpt>
      <trkpt lat="46.90713" lon="4.69277">
        <ele>216</ele>
        <time>2021-11-15T11:52:04+01:00</time>
      </trkpt>
      <trkpt lat="46.90783" lon="4.69463">
        <ele>215</ele>
        <time>2021-11-15T11:52:09+01:00</time>
      </trkpt>
      <trkpt lat="46.90666" lon="4.69532">
        <ele>213</ele>
        <time>2021-11-15T11:52:14+01:00</time>
      </trkpt>
      <trkpt lat="46.90511" lon="4.69581">
        <ele>214</ele>
        <time>2021-11-15T11:52:19+01:00</time>
      </trkpt>
      <trkpt lat="46.90436" lon="4.69484">
        <ele>217</ele>
        <time>2021-11-15T11:52:24+01:00</time>
      </trkpt>
      <trkpt lat="46.90312" lon="4.69419">
        <ele>222</ele>
        <time>2021-11-15T11:52:29+01:00</time>
      </trkpt>
      <trkpt lat="46.90187" lon="4.6919">
        <ele>221</ele>
        <time>2021-11-15T11:52:34+01:00</time>
      </trkpt>
      <trkpt lat="46.90136" lon="4.6924">
        <ele>226</ele>
        <time>2021-11-15T11:52:39+01:00</time>
      </trkpt>
      <trkpt lat="46.8989" lon="4.69015">
        <ele>230</ele>
        <time>2021-11-15T11:52:44+01:00</time>
      </trkpt>
      <trkpt lat="46.89699" lon="4.695">
        <ele>284</ele>
        <time>2021-11-15T11:52:49+01:00</time>
      </trkpt>
      <trkpt lat="46.89449" lon="4.6965">
        <ele>343</ele>
        <time>2021-11-15T11:52:54+01:00</time>
      </trkpt>
      <trkpt lat="46.89212" lon="4.69564">
        <ele>368</ele>
        <time>2021-11-15T11:52:59+01:00</time>
      </trkpt>
      <trkpt lat="46.89095" lon="4.69368">
        <ele>367</ele>
        <time>2021-11-15T11:53:04+01:00</time>
      </trkpt>
      <trkpt lat="46.88803" lon="4.69419">
        <ele>396</ele>
        <time>2021-11-15T11:53:09+01:00</time>
      </trkpt>
      <trkpt lat="46.88692" lon="4.69225">
        <ele>403</ele>
        <time>2021-11-15T11:53:14+01:00</time>
      </trkpt>
      <trkpt lat="46.887" lon="4.69115">
        <ele>391</ele>
        <time>2021-11-15T11:53:19+01:00</time>
      </trkpt>
      <trkpt lat="46.8854" lon="4.69053">
        <ele>409</ele>
        <time>2021-11-15T11:53:24+01:00</time>
      </trkpt>
      <trkpt lat="46.88384" lon="4.68898">
        <ele>421</ele>
        <time>2021-11-15T11:53:29+01:00</time>
      </trkpt>
      <trkpt lat="46.88177" lon="4.68668">
        <ele>422</ele>
        <time>2021-11-15T11:53:34+01:00</time>
      </trkpt>
      <trkpt lat="46.88023" lon="4.68583">
        <ele>425</ele>
        <time>2021-11-15T11:53:39+01:00</time>
      </trkpt>
      <trkpt lat="46.8805" lon="4.68748">
        <ele>414</ele>
        <time>2021-11-15T11:53:44+01:00</time>
      </trkpt>
      <trkpt lat="46.87953" lon="4.68655">
        <ele>411</ele>
        <time>2021-11-15T11:53:49+01:00</time>
      </trkpt>
      <trkpt lat="46.87895" lon="4.68507">
        <ele>424</ele>
        <time>2021-11-15T11:53:54+01:00</time>
      </trkpt>
      <trkpt lat="46.87744" lon="4.68417">
        <ele>420</ele>
        <time>2021-11-15T11:53:59+01:00</time>
      </trkpt>
      <trkpt lat="46.87542" lon="4.68364">
        <ele>404</ele>
        <time>2021-11-15T11:54:04+01:00</time>
      </trkpt>
      <trkpt lat="46.87377" lon="4.68399">
        <ele>373</ele>
        <time>2021-11-15T11:54:09+01:00</time>
      </trkpt>
      <trkpt lat="46.87198" lon="4.68391">
        <ele>353</ele>
        <time>2021-11-15T11:54:14+01:00</time>
      </trkpt>
      <trkpt lat="46.87013" lon="4.68467">
        <ele>327</ele>
        <time>2021-11-15T11:54:19+01:00</time>
      </trkpt>
      <trkpt lat="46.86815" lon="4.68475">
        <ele>323</ele>
        <time>2021-11-15T11:54:24+01:00</time>
      </trkpt>
      <trkpt lat="46.86711" lon="4.68427">
        <ele>325</ele>
        <time>2021-11-15T11:54:29+01:00</time>
      </trkpt>
      <trkpt lat="46.86658" lon="4.68776">
        <ele>326</ele>
        <time>2021-11-15T11:54:34+01:00</time>
      </trkpt>
      <trkpt lat="46.86476" lon="4.68812">
        <ele>347</ele>
        <time>2021-11-15T11:54:39+01:00</time>
      </trkpt>
      <trkpt lat="46.86326" lon="4.68881">
        <ele>362</ele>
        <time>2021-11-15T11:54:44+01:00</time>
      </trkpt>
      <trkpt lat="46.86183" lon="4.69086">
        <ele>372</ele>
        <time>2021-11-15T11:54:49+01:00</time>
      </trkpt>
      <trkpt lat="46.86095" lon="4.69263">
        <ele>379</ele>
        <time>2021-11-15T11:54:54+01:00</time>
      </trkpt>
      <trkpt lat="46.85997" lon="4.69346">
        <ele>384</ele>
        <time>2021-11-15T11:54:59+01:00</time>
      </trkpt>
      <trkpt lat="46.85625" lon="4.69107">
        <ele>397</ele>
        <time>2021-11-15T11:55:04+01:00</time>
      </trkpt>
      <trkpt lat="46.8537" lon="4.69005">
        <ele>399</ele>
        <time>2021-11-15T11:55:09+01:00</time>
      </trkpt>
      <trkpt lat="46.85113" lon="4.68867">
        <ele>390</ele>
        <time>2021-11-15T11:55:14+01:00</time>
      </trkpt>
      <trkpt lat="46.85111" lon="4.68678">
        <ele>385</ele>
        <time>2021-11-15T11:55:19+01:00</time>
      </trkpt>
      <trkpt lat="46.85071" lon="4.6867">
        <ele>385</ele>
        <time>2021-11-15T11:55:24+01:00</time>
      </trkpt>
      <trkpt lat="46.84993" lon="4.68688">
        <ele>384</ele>
        <time>2021-11-15T11:55:29+01:00</time>
      </trkpt>
      <trkpt lat="46.84924" lon="4.68682">
        <ele>384</ele>
        <time>2021-11-15T11:55:34+01:00</time>
      </trkpt>
      <trkpt lat="46.84883" lon="4.68637">
        <ele>382</ele>
        <time>2021-11-15T11:55:39+01:00</time>
      </trkpt>
      <trkpt lat="46.84824" lon="4.68613">
        <ele>383</ele>
        <time>2021-11-15T11:55:44+01:00</time>
      </trkpt>
      <trkpt lat="46.84818" lon="4.68643">
        <ele>383</ele>
        <time>2021-11-15T11:55:49+01:00</time>
      </trkpt>
      <trkpt lat="46.84789" lon="4.68656">
        <ele>382</ele>
        <time>2021-11-15T11:55:54+01:00</time>
      </trkpt>
    </trkseg>
  </trk>
</gpx>